X  Sluiten METAR luchtvaart weer gegevens      EHRD Rotterdam The Hague Airport
Temperatuur
2°C Temperatuur
-3°C Dauwpunt
70% Vochtigheid



Wind
24 KM/U
15 MPH
7 M/S
13 KTS



190°
Zuid
Huidig weer

Veel verspreide wolken Veel verspreide wolken
Luchtdruk 1023.92 (hPa) - 30.24 (inHg)
Zicht 6.2 (mijl) - 10 (km)
Vliegveld
Vliegveld code EHRD

Locatie : Rotterdam The Hague Airport
Afstand: 16 (km)

Metar:
EHRD 161055Z AUTO 19013KT 160V230 9999 SCT045 02/M03 Q1024 NOSIG

Tijd: 16-01-2021 11:55 CET